Time;durP1;ratioP1;P1;durP2;ratioP2;P2;SDS_P1;SDS_P2;PMS_P1;PMS_P2;Temp;Humidity;BMP_temperature;BMP_pressure;BME280_temperature;BME280_humidity;BME280_pressure;Samples;Min_cycle;Max_cycle;Signal;HPM_P1;HPM_P2
2023/08/10 00:03:02;;;;;;;;;;;20.90;60.90;;;;;;10242399;28;89721;-50
2023/08/10 00:08:05;;;;;;;;;;;21.00;61.10;;;;;;10224835;28;89564;-52
2023/08/10 00:13:08;;;;;;;;;;;21.00;61.10;;;;;;10222929;28;89105;-50
2023/08/10 00:18:10;;;;;;;;;;;21.00;61.10;;;;;;10239678;28;88603;-51
2023/08/10 00:23:13;;;;;;;;;;;20.90;61.00;;;;;;10242073;28;89283;-52
2023/08/10 00:28:16;;;;;;;;;;;20.90;61.10;;;;;;10221960;28;89463;-47
2023/08/10 00:33:18;;;;;;;;;;;20.90;61.00;;;;;;10229973;28;90223;-47
2023/08/10 00:38:40;;;;;;;;;;;20.90;61.10;;;;;;10234297;28;88695;-50
2023/08/10 00:43:43;;;;;;;;;;;20.90;61.10;;;;;;10215454;28;89086;-50
2023/08/10 00:48:46;;;;;;;;;;;20.90;61.20;;;;;;10224607;28;88839;-47
2023/08/10 00:53:48;;;;;;;;;;;20.90;61.20;;;;;;10226861;28;89812;-50
2023/08/10 00:58:51;;;;;;;;;;;20.90;61.30;;;;;;10237961;28;89607;-47
2023/08/10 01:03:53;;;;;;;;;;;20.90;61.30;;;;;;10198647;28;89250;-47
2023/08/10 01:09:03;;;;;;;;;;;20.90;61.30;;;;;;10216580;28;89927;-48
2023/08/10 01:14:13;;;;;;;;;;;20.90;61.30;;;;;;10216378;28;89844;-50
2023/08/10 01:19:30;;;;;;;;;;;20.90;61.30;;;;;;10208755;28;89150;-51
2023/08/10 01:24:38;;;;;;;;;;;20.90;61.40;;;;;;10222710;28;89413;-51
2023/08/10 01:29:41;;;;;;;;;;;20.90;61.30;;;;;;10207053;28;89074;-48
2023/08/10 01:34:44;;;;;;;;;;;20.90;61.30;;;;;;10210670;28;89030;-48
2023/08/10 01:39:46;;;;;;;;;;;20.90;61.30;;;;;;10208483;28;89723;-47
2023/08/10 01:44:47;;;;;;;;;;;20.90;61.30;;;;;;10221426;28;89769;-47
2023/08/10 01:49:53;;;;;;;;;;;20.90;61.30;;;;;;10223269;28;89007;-47
2023/08/10 01:54:55;;;;;;;;;;;20.90;61.30;;;;;;10225393;28;89955;-53
2023/08/10 01:59:59;;;;;;;;;;;20.90;62.30;;;;;;10226616;28;91040;-48
2023/08/10 02:05:02;;;;;;;;;;;20.90;61.30;;;;;;10211982;28;89534;-51
2023/08/10 02:10:05;;;;;;;;;;;20.90;61.30;;;;;;10223124;28;89906;-51
2023/08/10 02:15:10;;;;;;;;;;;20.90;61.30;;;;;;10191516;28;89652;-47
2023/08/10 02:20:12;;;;;;;;;;;20.90;61.30;;;;;;10210784;28;90182;-50
2023/08/10 02:25:15;;;;;;;;;;;20.90;61.20;;;;;;10234627;28;89050;-47
2023/08/10 02:30:17;;;;;;;;;;;20.90;61.20;;;;;;10197629;28;89518;-46
2023/08/10 02:35:19;;;;;;;;;;;20.90;61.20;;;;;;10220574;28;90368;-49
2023/08/10 02:40:24;;;;;;;;;;;20.90;62.30;;;;;;10232321;28;89337;-51
2023/08/10 02:45:26;;;;;;;;;;;20.90;61.20;;;;;;10220691;28;89527;-46
2023/08/10 02:50:28;;;;;;;;;;;20.90;61.30;;;;;;10230598;28;89969;-49
2023/08/10 02:55:30;;;;;;;;;;;20.90;61.30;;;;;;10219220;28;89615;-47
2023/08/10 03:00:36;;;;;;;;;;;20.90;61.20;;;;;;10221568;28;89193;-52
2023/08/10 03:05:39;;;;;;;;;;;20.90;61.30;;;;;;10207347;28;89328;-49
2023/08/10 03:10:43;;;;;;;;;;;20.90;61.30;;;;;;10205144;28;88762;-49
2023/08/10 03:15:45;;;;;;;;;;;20.90;61.30;;;;;;10242186;28;89075;-51
2023/08/10 03:20:48;;;;;;;;;;;20.90;61.30;;;;;;10217839;28;89816;-49
2023/08/10 03:25:50;;;;;;;;;;;20.90;61.30;;;;;;10227883;28;90248;-52
2023/08/10 03:30:52;;;;;;;;;;;20.90;61.40;;;;;;10240941;28;89003;-50
2023/08/10 03:35:54;;;;;;;;;;;20.90;61.40;;;;;;10232338;28;89448;-47
2023/08/10 03:40:56;;;;;;;;;;;20.90;61.50;;;;;;10231024;28;89620;-49
2023/08/10 03:45:58;;;;;;;;;;;20.80;61.40;;;;;;10215570;28;91059;-49
2023/08/10 03:51:01;;;;;;;;;;;20.90;61.50;;;;;;10220929;28;89204;-47
2023/08/10 03:56:02;;;;;;;;;;;20.80;61.50;;;;;;10230480;28;91293;-48
2023/08/10 04:01:06;;;;;;;;;;;20.80;61.60;;;;;;10210066;28;88929;-49
2023/08/10 04:06:15;;;;;;;;;;;20.80;61.70;;;;;;10230837;28;89479;-50
2023/08/10 04:11:18;;;;;;;;;;;20.80;61.60;;;;;;10214465;28;90409;-50
2023/08/10 04:16:20;;;;;;;;;;;20.80;61.70;;;;;;10231376;28;90253;-50
2023/08/10 04:21:22;;;;;;;;;;;20.80;61.70;;;;;;10195634;28;89751;-47
2023/08/10 04:26:25;;;;;;;;;;;20.80;61.80;;;;;;10189198;28;89621;-53
2023/08/10 04:31:28;;;;;;;;;;;20.70;61.70;;;;;;10214686;28;89465;-47
2023/08/10 04:36:30;;;;;;;;;;;20.70;61.70;;;;;;10215123;28;89456;-49
2023/08/10 04:41:32;;;;;;;;;;;20.70;61.80;;;;;;10224144;28;90130;-46
2023/08/10 04:52:06;;;;;;;;;;;;;;;;;;;;;
2023/08/10 04:57:31;;;;;;;;;;;20.70;61.90;;;;;;10221591;28;89731;-64
2023/08/10 05:02:34;;;;;;;;;;;20.70;62.00;;;;;;10208868;28;90048;-64
2023/08/10 05:07:37;;;;;;;;;;;20.70;62.10;;;;;;10216155;28;90298;-61
2023/08/10 05:12:43;;;;;;;;;;;20.70;62.00;;;;;;10214614;28;88923;-64
2023/08/10 05:17:48;;;;;;;;;;;20.60;62.00;;;;;;10227806;28;88953;-61
2023/08/10 05:22:51;;;;;;;;;;;20.60;62.10;;;;;;10227885;28;88911;-61
2023/08/10 05:27:53;;;;;;;;;;;20.60;62.20;;;;;;10204182;28;89528;-65
2023/08/10 05:32:56;;;;;;;;;;;20.60;62.20;;;;;;10220466;28;91097;-65
2023/08/10 05:37:58;;;;;;;;;;;20.70;62.40;;;;;;10217244;28;89215;-65
2023/08/10 05:42:59;;;;;;;;;;;20.70;62.30;;;;;;10208877;28;89306;-65
2023/08/10 05:48:08;;;;;;;;;;;20.70;62.30;;;;;;10203058;28;90221;-64
2023/08/10 05:53:18;;;;;;;;;;;20.70;62.40;;;;;;10216352;28;89501;-65
2023/08/10 05:58:23;;;;;;;;;;;20.70;62.40;;;;;;10185634;28;91060;-64
2023/08/10 06:03:26;;;;;;;;;;;20.70;62.40;;;;;;10231409;28;90077;-64
2023/08/10 06:08:30;;;;;;;;;;;20.70;62.40;;;;;;10231558;28;88871;-64
2023/08/10 06:13:37;;;;;;;;;;;20.70;62.50;;;;;;10201931;28;89321;-61
2023/08/10 06:18:39;;;;;;;;;;;20.60;62.50;;;;;;10192594;28;90272;-61
2023/08/10 06:23:41;;;;;;;;;;;20.70;62.40;;;;;;10206270;28;89052;-62
2023/08/10 06:28:43;;;;;;;;;;;20.70;62.50;;;;;;10217023;28;90069;-64
2023/08/10 06:33:45;;;;;;;;;;;20.70;62.50;;;;;;10202244;28;89031;-64
2023/08/10 06:38:48;;;;;;;;;;;20.70;62.30;;;;;;10220973;28;89410;-64
2023/08/10 06:43:51;;;;;;;;;;;20.70;62.30;;;;;;10223907;28;88952;-61
2023/08/10 06:48:55;;;;;;;;;;;20.70;62.20;;;;;;10204284;28;90868;-61
2023/08/10 06:53:57;;;;;;;;;;;20.80;62.20;;;;;;10193433;28;90110;-65
2023/08/10 06:58:59;;;;;;;;;;;20.80;62.20;;;;;;10229591;28;90022;-62
2023/08/10 07:04:04;;;;;;;;;;;20.90;62.10;;;;;;10224143;28;89677;-62
2023/08/10 07:09:09;;;;;;;;;;;20.90;63.00;;;;;;10230209;28;90502;-64
2023/08/10 07:14:14;;;;;;;;;;;20.90;61.90;;;;;;10203814;28;89972;-62
2023/08/10 07:19:16;;;;;;;;;;;20.90;61.90;;;;;;10217277;28;89036;-62
2023/08/10 07:24:19;;;;;;;;;;;20.90;61.90;;;;;;10224436;28;88466;-63
2023/08/10 07:29:21;;;;;;;;;;;20.90;61.90;;;;;;10203735;28;90723;-61
2023/08/10 07:34:23;;;;;;;;;;;20.80;61.90;;;;;;10204552;28;89932;-62
2023/08/10 07:39:26;;;;;;;;;;;20.90;62.20;;;;;;10212480;28;90588;-64
2023/08/10 07:44:33;;;;;;;;;;;20.80;62.00;;;;;;10201983;28;90221;-62
2023/08/10 07:49:55;;;;;;;;;;;20.80;62.10;;;;;;10212157;28;92529;-65
2023/08/10 07:54:57;;;;;;;;;;;20.80;62.20;;;;;;10205129;28;89284;-61
2023/08/10 08:00:05;;;;;;;;;;;20.80;63.20;;;;;;10229599;28;89866;-60
2023/08/10 08:05:11;;;;;;;;;;;20.90;63.70;;;;;;10182117;28;92555;-64
2023/08/10 08:10:12;;;;;;;;;;;20.90;64.00;;;;;;10242700;28;88883;-64
2023/08/10 08:15:15;;;;;;;;;;;20.90;63.90;;;;;;10216531;28;88791;-64
2023/08/10 08:20:18;;;;;;;;;;;21.00;64.20;;;;;;10200990;28;91101;-64
2023/08/10 08:25:21;;;;;;;;;;;21.00;64.30;;;;;;10201299;28;89046;-64
2023/08/10 08:30:26;;;;;;;;;;;21.00;64.40;;;;;;10206868;28;89846;-64
2023/08/10 08:35:27;;;;;;;;;;;21.00;64.40;;;;;;10195793;28;89964;-63
2023/08/10 08:40:29;;;;;;;;;;;21.00;64.30;;;;;;10215280;28;90033;-63
2023/08/10 08:45:32;;;;;;;;;;;21.00;64.40;;;;;;10226737;28;89193;-58
2023/08/10 08:50:45;;;;;;;;;;;21.00;64.40;;;;;;10204025;28;91012;-59
2023/08/10 08:55:47;;;;;;;;;;;21.00;64.00;;;;;;10226509;28;89098;-63
2023/08/10 09:00:52;;;;;;;;;;;21.00;63.70;;;;;;10238080;28;88992;-63
2023/08/10 09:05:55;;;;;;;;;;;21.00;63.50;;;;;;10211162;28;88821;-63
2023/08/10 09:10:57;;;;;;;;;;;21.00;63.30;;;;;;10200529;28;90396;-59
2023/08/10 09:16:09;;;;;;;;;;;21.00;63.20;;;;;;10233620;28;89767;-60
2023/08/10 09:21:15;;;;;;;;;;;21.00;63.20;;;;;;10226720;28;90755;-59
2023/08/10 09:26:18;;;;;;;;;;;20.90;63.00;;;;;;10210470;28;89392;-63
2023/08/10 09:31:29;;;;;;;;;;;20.90;62.90;;;;;;10237328;28;89590;-63
2023/08/10 09:36:31;;;;;;;;;;;21.00;63.00;;;;;;10219473;28;89026;-63
2023/08/10 09:41:40;;;;;;;;;;;20.90;62.90;;;;;;10214354;28;89346;-60
2023/08/10 09:46:44;;;;;;;;;;;20.90;62.90;;;;;;10229601;28;89694;-59
2023/08/10 09:51:47;;;;;;;;;;;21.00;63.00;;;;;;10236958;28;89309;-59
2023/08/10 09:56:50;;;;;;;;;;;21.00;63.00;;;;;;10218937;28;89496;-59
2023/08/10 10:01:54;;;;;;;;;;;21.00;62.90;;;;;;10214535;28;89249;-64
2023/08/10 10:06:59;;;;;;;;;;;21.00;62.90;;;;;;10199153;28;89713;-61
2023/08/10 10:12:06;;;;;;;;;;;21.00;62.80;;;;;;10240452;28;89767;-61
2023/08/10 10:17:23;;;;;;;;;;;21.00;62.80;;;;;;10224990;28;89345;-60
2023/08/10 10:22:26;;;;;;;;;;;21.10;62.80;;;;;;10213811;28;90374;-63
2023/08/10 10:27:39;;;;;;;;;;;21.10;62.80;;;;;;10214861;28;91427;-63
2023/08/10 10:32:44;;;;;;;;;;;21.10;62.80;;;;;;10236157;28;90040;-61
2023/08/10 10:37:57;;;;;;;;;;;21.10;62.80;;;;;;10220136;28;90017;-61
2023/08/10 10:43:02;;;;;;;;;;;21.10;62.80;;;;;;10228344;28;89031;-64
2023/08/10 10:48:06;;;;;;;;;;;21.10;62.70;;;;;;10199954;28;108868;-64
2023/08/10 10:53:13;;;;;;;;;;;21.20;62.70;;;;;;10230504;28;90065;-61
2023/08/10 10:58:16;;;;;;;;;;;21.20;62.70;;;;;;10215690;28;90102;-61
2023/08/10 11:03:24;;;;;;;;;;;21.20;62.60;;;;;;10197634;28;91716;-60
2023/08/10 11:08:26;;;;;;;;;;;21.20;62.60;;;;;;10232988;28;89143;-60
2023/08/10 11:13:37;;;;;;;;;;;21.20;62.60;;;;;;10214262;28;89804;-60
2023/08/10 11:18:39;;;;;;;;;;;21.20;62.50;;;;;;10195162;28;88899;-61
2023/08/10 11:23:42;;;;;;;;;;;21.30;62.50;;;;;;10232126;28;89096;-64
2023/08/10 11:28:49;;;;;;;;;;;21.30;62.50;;;;;;10186419;28;89474;-61
2023/08/10 11:33:52;;;;;;;;;;;21.40;62.40;;;;;;10222063;28;89660;-64
2023/08/10 11:38:54;;;;;;;;;;;21.40;62.40;;;;;;10206162;28;89638;-63
2023/08/10 11:43:56;;;;;;;;;;;21.40;62.30;;;;;;10238574;28;89099;-61
2023/08/10 11:48:58;;;;;;;;;;;21.40;62.30;;;;;;10236836;28;89059;-60
2023/08/10 11:54:07;;;;;;;;;;;21.50;62.30;;;;;;10213735;28;90108;-60
2023/08/10 11:59:14;;;;;;;;;;;21.50;62.30;;;;;;10226448;28;91302;-61
2023/08/10 12:04:19;;;;;;;;;;;21.50;62.20;;;;;;10230293;28;90046;-61
2023/08/10 12:09:25;;;;;;;;;;;21.50;62.30;;;;;;10217483;28;90661;-61
2023/08/10 12:14:27;;;;;;;;;;;21.50;62.20;;;;;;10234898;28;89653;-61
2023/08/10 12:19:29;;;;;;;;;;;21.50;62.10;;;;;;10233425;28;89147;-64
2023/08/10 12:24:30;;;;;;;;;;;21.60;62.20;;;;;;10228618;28;89443;-60
2023/08/10 12:29:32;;;;;;;;;;;21.60;62.20;;;;;;10226043;28;89247;-60
2023/08/10 12:34:38;;;;;;;;;;;21.60;62.10;;;;;;10225054;28;90055;-61
2023/08/10 12:39:40;;;;;;;;;;;21.60;62.10;;;;;;10217020;28;90199;-60
2023/08/10 12:44:48;;;;;;;;;;;21.60;62.10;;;;;;10212597;28;90237;-64
2023/08/10 12:49:54;;;;;;;;;;;21.60;62.20;;;;;;10216363;28;88730;-63
2023/08/10 12:55:00;;;;;;;;;;;21.60;62.10;;;;;;10237965;28;89988;-64
2023/08/10 13:00:10;;;;;;;;;;;21.60;62.10;;;;;;10208555;28;89657;-66
2023/08/10 13:05:17;;;;;;;;;;;21.60;62.20;;;;;;10230407;28;90063;-64
2023/08/10 13:10:24;;;;;;;;;;;21.60;62.20;;;;;;10233167;28;89464;-65
2023/08/10 13:15:29;;;;;;;;;;;21.60;62.30;;;;;;10231041;28;89490;-64
2023/08/10 13:20:31;;;;;;;;;;;21.60;62.20;;;;;;10216919;28;89407;-64
2023/08/10 13:25:33;;;;;;;;;;;21.60;62.30;;;;;;10211533;28;89493;-64
2023/08/10 13:30:35;;;;;;;;;;;21.50;62.30;;;;;;10224479;28;89284;-64
2023/08/10 13:35:37;;;;;;;;;;;21.60;62.40;;;;;;10240381;28;90939;-64
2023/08/10 13:40:38;;;;;;;;;;;21.50;62.40;;;;;;10232926;28;89132;-63
2023/08/10 13:45:40;;;;;;;;;;;21.50;62.40;;;;;;10218190;28;89986;-65
2023/08/10 13:50:42;;;;;;;;;;;21.50;62.40;;;;;;10229034;28;88753;-63
2023/08/10 13:55:44;;;;;;;;;;;21.50;62.40;;;;;;10222869;28;89914;-62
2023/08/10 14:00:47;;;;;;;;;;;21.50;62.40;;;;;;10209199;28;90024;-63
2023/08/10 14:05:49;;;;;;;;;;;21.50;62.40;;;;;;10231997;28;90131;-60
2023/08/10 14:10:53;;;;;;;;;;;21.50;62.40;;;;;;10232104;28;89988;-60
2023/08/10 14:15:55;;;;;;;;;;;21.50;62.50;;;;;;10232806;28;90170;-64
2023/08/10 14:20:57;;;;;;;;;;;21.50;62.50;;;;;;10233992;28;89285;-64
2023/08/10 14:26:03;;;;;;;;;;;21.50;62.50;;;;;;10212542;28;91187;-64
2023/08/10 14:31:09;;;;;;;;;;;21.50;62.60;;;;;;10217568;28;89912;-64
2023/08/10 14:36:12;;;;;;;;;;;21.50;62.70;;;;;;10233195;28;89044;-64
2023/08/10 14:41:14;;;;;;;;;;;21.50;62.60;;;;;;10236270;28;91428;-64
2023/08/10 14:46:16;;;;;;;;;;;21.50;62.70;;;;;;10222181;28;90655;-64
2023/08/10 14:51:19;;;;;;;;;;;21.50;62.70;;;;;;10231871;28;90262;-64
2023/08/10 14:56:31;;;;;;;;;;;21.50;62.80;;;;;;10203789;28;88815;-65
2023/08/10 15:01:40;;;;;;;;;;;21.50;62.70;;;;;;10215160;28;88718;-63
2023/08/10 15:06:44;;;;;;;;;;;21.50;62.70;;;;;;10227185;28;89380;-64
2023/08/10 15:11:46;;;;;;;;;;;21.50;62.70;;;;;;10223326;28;89865;-64
2023/08/10 15:16:48;;;;;;;;;;;21.50;62.70;;;;;;10234654;28;89781;-64
2023/08/10 15:21:50;;;;;;;;;;;21.50;62.70;;;;;;10241762;28;89190;-64
2023/08/10 15:26:53;;;;;;;;;;;21.50;62.90;;;;;;10240369;28;88959;-64
2023/08/10 15:31:58;;;;;;;;;;;21.50;62.90;;;;;;10241595;28;90045;-63
2023/08/10 15:37:00;;;;;;;;;;;21.50;62.90;;;;;;10240864;28;88973;-64
2023/08/10 15:42:03;;;;;;;;;;;21.50;62.80;;;;;;10236788;28;88953;-64
2023/08/10 15:47:05;;;;;;;;;;;21.50;62.90;;;;;;10232700;28;89469;-64
2023/08/10 15:52:07;;;;;;;;;;;21.50;62.90;;;;;;10233601;28;88596;-64
2023/08/10 15:57:09;;;;;;;;;;;21.50;62.80;;;;;;10231470;28;90021;-63
2023/08/10 16:02:14;;;;;;;;;;;21.50;62.80;;;;;;10239755;28;90048;-61
2023/08/10 16:07:16;;;;;;;;;;;21.50;62.80;;;;;;10240345;28;89858;-60
2023/08/10 16:12:17;;;;;;;;;;;21.50;62.80;;;;;;10233022;28;89305;-60
2023/08/10 16:17:21;;;;;;;;;;;21.50;62.80;;;;;;10220647;28;89836;-60
2023/08/10 16:22:24;;;;;;;;;;;21.50;62.90;;;;;;10213134;28;89283;-61
2023/08/10 16:27:25;;;;;;;;;;;21.60;62.90;;;;;;10232806;28;90258;-60
2023/08/10 16:32:27;;;;;;;;;;;21.60;62.90;;;;;;10235781;28;89919;-60
2023/08/10 16:37:39;;;;;;;;;;;21.60;62.80;;;;;;10222431;28;89547;-60
2023/08/10 16:42:41;;;;;;;;;;;21.60;62.80;;;;;;10217471;28;89233;-61
2023/08/10 16:47:43;;;;;;;;;;;21.60;62.80;;;;;;10232219;28;90715;-61
2023/08/10 16:52:45;;;;;;;;;;;21.60;62.90;;;;;;10222244;28;89407;-61
2023/08/10 16:57:48;;;;;;;;;;;21.70;63.00;;;;;;10230121;28;91125;-61
2023/08/10 17:02:49;;;;;;;;;;;21.70;62.90;;;;;;10236395;28;89173;-60
2023/08/10 17:07:53;;;;;;;;;;;21.70;62.90;;;;;;10231727;28;89842;-61
2023/08/10 17:12:59;;;;;;;;;;;21.80;63.00;;;;;;10224877;28;89105;-61
2023/08/10 17:18:04;;;;;;;;;;;21.80;62.80;;;;;;10235708;28;88889;-61
2023/08/10 17:23:06;;;;;;;;;;;21.90;62.80;;;;;;10230539;28;90069;-61
2023/08/10 17:28:09;;;;;;;;;;;21.90;62.70;;;;;;10211165;28;89124;-60
2023/08/10 17:33:14;;;;;;;;;;;22.10;62.60;;;;;;10230642;28;88582;-61
2023/08/10 17:38:16;;;;;;;;;;;22.10;63.60;;;;;;10210131;28;89377;-60
2023/08/10 17:43:18;;;;;;;;;;;22.10;62.60;;;;;;10229318;28;90236;-62
2023/08/10 17:48:19;;;;;;;;;;;22.10;62.40;;;;;;10206239;28;89788;-60
2023/08/10 17:53:23;;;;;;;;;;;22.20;62.40;;;;;;10205956;28;89494;-60
2023/08/10 17:58:27;;;;;;;;;;;22.20;62.30;;;;;;10214720;28;90267;-60
2023/08/10 18:03:29;;;;;;;;;;;22.20;62.20;;;;;;10229982;28;90015;-60
2023/08/10 18:08:32;;;;;;;;;;;22.30;62.30;;;;;;10239273;28;90169;-61
2023/08/10 18:13:38;;;;;;;;;;;22.20;62.10;;;;;;10196810;28;89430;-61
2023/08/10 18:18:40;;;;;;;;;;;22.30;62.20;;;;;;10224816;28;89388;-62
2023/08/10 18:23:42;;;;;;;;;;;22.20;62.10;;;;;;10217831;28;89546;-66
2023/08/10 18:28:44;;;;;;;;;;;22.20;63.10;;;;;;10220083;28;90925;-65
2023/08/10 18:33:46;;;;;;;;;;;22.20;62.10;;;;;;10232387;28;90008;-63
2023/08/10 18:38:49;;;;;;;;;;;22.10;62.20;;;;;;10198353;28;90736;-62
2023/08/10 18:43:54;;;;;;;;;;;22.00;62.20;;;;;;10198325;28;91063;-65
2023/08/10 18:48:57;;;;;;;;;;;22.00;62.30;;;;;;10220611;28;89321;-63
2023/08/10 18:53:59;;;;;;;;;;;21.90;62.40;;;;;;10186999;28;90003;-63
2023/08/10 18:59:02;;;;;;;;;;;21.90;62.50;;;;;;10213589;28;89521;-64
2023/08/10 19:04:05;;;;;;;;;;;21.80;62.50;;;;;;10213761;28;89419;-64
2023/08/10 19:09:07;;;;;;;;;;;21.80;62.70;;;;;;10227836;28;89034;-62
2023/08/10 19:14:09;;;;;;;;;;;21.70;62.70;;;;;;10230852;28;89292;-63
2023/08/10 19:19:11;;;;;;;;;;;21.70;62.80;;;;;;10227931;28;90019;-63
2023/08/10 19:24:13;;;;;;;;;;;21.70;62.90;;;;;;10230734;28;90041;-64
2023/08/10 19:29:14;;;;;;;;;;;21.70;62.90;;;;;;10223412;28;89796;-63
2023/08/10 19:34:16;;;;;;;;;;;21.70;62.90;;;;;;10231608;28;89980;-63
2023/08/10 19:39:22;;;;;;;;;;;21.70;63.00;;;;;;10213677;28;88886;-63
2023/08/10 19:44:24;;;;;;;;;;;21.60;63.00;;;;;;10213004;28;90418;-63
2023/08/10 19:49:26;;;;;;;;;;;21.60;63.10;;;;;;10230015;28;90619;-64
2023/08/10 19:54:28;;;;;;;;;;;21.60;63.20;;;;;;10218977;28;89003;-63
2023/08/10 19:59:30;;;;;;;;;;;21.60;63.20;;;;;;10218929;28;90305;-63
2023/08/10 20:04:32;;;;;;;;;;;21.50;63.20;;;;;;10209477;28;88707;-63
2023/08/10 20:09:35;;;;;;;;;;;21.50;63.20;;;;;;10225038;28;89601;-65
2023/08/10 20:14:38;;;;;;;;;;;21.50;63.30;;;;;;10215920;28;90326;-62
2023/08/10 20:19:40;;;;;;;;;;;21.50;63.40;;;;;;10237846;28;90396;-63
2023/08/10 20:24:49;;;;;;;;;;;21.50;63.50;;;;;;10226723;28;89130;-63
2023/08/10 20:29:52;;;;;;;;;;;21.50;63.50;;;;;;10215832;28;89047;-63
2023/08/10 20:34:55;;;;;;;;;;;21.40;63.50;;;;;;10222858;28;91976;-64
2023/08/10 20:39:57;;;;;;;;;;;21.50;63.50;;;;;;10219575;28;90749;-63
2023/08/10 20:44:59;;;;;;;;;;;21.40;63.50;;;;;;10240197;28;89973;-64
2023/08/10 20:50:05;;;;;;;;;;;21.50;63.60;;;;;;10222534;28;91239;-63
2023/08/10 20:55:07;;;;;;;;;;;21.50;63.50;;;;;;10235477;28;88545;-67
2023/08/10 21:00:09;;;;;;;;;;;21.40;63.50;;;;;;10235272;28;89129;-63
2023/08/10 21:05:11;;;;;;;;;;;21.50;63.50;;;;;;10236642;28;89062;-63
2023/08/10 21:10:13;;;;;;;;;;;21.50;63.50;;;;;;10228902;28;91025;-63
2023/08/10 21:15:19;;;;;;;;;;;21.50;63.50;;;;;;10234245;28;90764;-63
2023/08/10 21:20:24;;;;;;;;;;;21.50;63.50;;;;;;10221100;28;89899;-63
2023/08/10 21:25:28;;;;;;;;;;;21.50;63.50;;;;;;10227842;28;90234;-64
2023/08/10 21:30:30;;;;;;;;;;;21.50;63.50;;;;;;10201652;28;89032;-63
2023/08/10 21:35:32;;;;;;;;;;;21.50;63.50;;;;;;10233215;28;89106;-63
2023/08/10 21:40:34;;;;;;;;;;;21.50;63.50;;;;;;10222119;28;90215;-63
2023/08/10 21:45:36;;;;;;;;;;;21.50;63.50;;;;;;10221019;28;88287;-64
2023/08/10 21:50:37;;;;;;;;;;;21.50;63.40;;;;;;10222379;28;89661;-60
2023/08/10 21:55:39;;;;;;;;;;;21.50;63.50;;;;;;10237444;28;89388;-63
2023/08/10 22:00:41;;;;;;;;;;;21.50;63.50;;;;;;10232722;28;90469;-63
2023/08/10 22:05:47;;;;;;;;;;;21.50;63.50;;;;;;10218474;28;90443;-63
2023/08/10 22:10:49;;;;;;;;;;;21.50;63.40;;;;;;10219241;28;89023;-63
2023/08/10 22:15:52;;;;;;;;;;;21.50;63.40;;;;;;10237593;28;89724;-63
2023/08/10 22:20:54;;;;;;;;;;;21.50;63.40;;;;;;10215483;28;90342;-63
2023/08/10 22:25:56;;;;;;;;;;;21.50;63.40;;;;;;10226109;28;89154;-63
2023/08/10 22:30:58;;;;;;;;;;;21.50;63.30;;;;;;10235832;28;88987;-73
2023/08/10 22:36:00;;;;;;;;;;;21.50;63.30;;;;;;10236938;28;88159;-63
2023/08/10 22:41:04;;;;;;;;;;;21.50;63.30;;;;;;10239423;28;89073;-63
2023/08/10 22:46:10;;;;;;;;;;;21.50;63.30;;;;;;10209375;28;89945;-63
2023/08/10 22:51:12;;;;;;;;;;;21.50;63.30;;;;;;10226685;28;89739;-63
2023/08/10 22:56:14;;;;;;;;;;;21.50;63.30;;;;;;10233243;28;89036;-63
2023/08/10 23:01:16;;;;;;;;;;;21.50;63.30;;;;;;10220731;28;89152;-63
2023/08/10 23:06:18;;;;;;;;;;;21.50;63.30;;;;;;10231768;28;90159;-63
2023/08/10 23:11:20;;;;;;;;;;;21.50;63.30;;;;;;10230684;28;89988;-63
2023/08/10 23:16:24;;;;;;;;;;;21.50;63.40;;;;;;10202163;28;90059;-63
2023/08/10 23:21:31;;;;;;;;;;;21.40;63.30;;;;;;10217798;28;89751;-63
2023/08/10 23:26:36;;;;;;;;;;;21.50;63.40;;;;;;10207615;28;88254;-63
2023/08/10 23:31:38;;;;;;;;;;;21.50;63.50;;;;;;10220278;28;90149;-62
2023/08/10 23:36:40;;;;;;;;;;;21.40;63.50;;;;;;10243200;28;90343;-63
2023/08/10 23:41:42;;;;;;;;;;;21.40;63.50;;;;;;10237619;28;89984;-62
2023/08/10 23:46:45;;;;;;;;;;;21.40;63.60;;;;;;10208710;28;89813;-63
2023/08/10 23:51:48;;;;;;;;;;;21.40;63.60;;;;;;10208813;28;89579;-63
2023/08/10 23:56:58;;;;;;;;;;;21.40;63.60;;;;;;10213096;28;89362;-63
